sensor_id;sensor_type;location;lat;lon;timestamp;P1;durP1;ratioP1;P2;durP2;ratioP2
60038;SDS011;45916;52.734;6.544;2023-08-31T00:56:59;9.63;;;5.60;;
60038;SDS011;45916;52.734;6.544;2023-08-31T00:59:25;12.15;;;6.57;;
60038;SDS011;45916;52.734;6.544;2023-08-31T01:04:47;11.63;;;5.93;;
60038;SDS011;45916;52.734;6.544;2023-08-31T01:07:55;10.77;;;5.53;;
60038;SDS011;45916;52.734;6.544;2023-08-31T01:10:24;8.60;;;5.32;;
60038;SDS011;45916;52.734;6.544;2023-08-31T01:13:07;9.20;;;5.40;;
60038;SDS011;45916;52.734;6.544;2023-08-31T01:15:45;9.13;;;5.50;;
60038;SDS011;45916;52.734;6.544;2023-08-31T01:18:17;7.72;;;5.30;;
60038;SDS011;45916;52.734;6.544;2023-08-31T01:20:50;8.70;;;5.05;;
60038;SDS011;45916;52.734;6.544;2023-08-31T01:23:21;9.65;;;4.97;;
60038;SDS011;45916;52.734;6.544;2023-08-31T01:25:59;9.55;;;5.57;;
60038;SDS011;45916;52.734;6.544;2023-08-31T01:28:25;10.10;;;6.70;;
60038;SDS011;45916;52.734;6.544;2023-08-31T01:30:51;11.18;;;7.28;;
60038;SDS011;45916;52.734;6.544;2023-08-31T01:33:17;11.13;;;7.03;;
60038;SDS011;45916;52.734;6.544;2023-08-31T01:35:44;10.02;;;6.57;;
60038;SDS011;45916;52.734;6.544;2023-08-31T01:38:18;10.13;;;7.40;;
60038;SDS011;45916;52.734;6.544;2023-08-31T01:43:33;10.50;;;7.82;;
60038;SDS011;45916;52.734;6.544;2023-08-31T01:46:00;10.27;;;7.63;;
60038;SDS011;45916;52.734;6.544;2023-08-31T01:48:26;12.73;;;7.18;;
60038;SDS011;45916;52.734;6.544;2023-08-31T01:50:52;11.63;;;8.00;;
60038;SDS011;45916;52.734;6.544;2023-08-31T01:53:18;11.73;;;7.82;;
60038;SDS011;45916;52.734;6.544;2023-08-31T01:55:43;12.93;;;7.57;;
60038;SDS011;45916;52.734;6.544;2023-08-31T01:58:09;10.02;;;7.38;;
60038;SDS011;45916;52.734;6.544;2023-08-31T02:00:35;10.13;;;7.63;;
60038;SDS011;45916;52.734;6.544;2023-08-31T02:03:03;13.52;;;7.68;;
60038;SDS011;45916;52.734;6.544;2023-08-31T02:05:29;11.43;;;7.95;;
60038;SDS011;45916;52.734;6.544;2023-08-31T02:07:55;13.90;;;7.97;;
60038;SDS011;45916;52.734;6.544;2023-08-31T02:10:21;11.73;;;7.60;;
60038;SDS011;45916;52.734;6.544;2023-08-31T02:12:46;10.95;;;8.02;;
60038;SDS011;45916;52.734;6.544;2023-08-31T02:15:12;12.82;;;8.07;;
60038;SDS011;45916;52.734;6.544;2023-08-31T02:17:37;11.05;;;7.90;;
60038;SDS011;45916;52.734;6.544;2023-08-31T02:20:03;11.23;;;8.10;;
60038;SDS011;45916;52.734;6.544;2023-08-31T02:22:33;11.40;;;8.20;;
60038;SDS011;45916;52.734;6.544;2023-08-31T02:24:59;12.25;;;9.43;;
60038;SDS011;45916;52.734;6.544;2023-08-31T02:27:26;11.70;;;8.90;;
60038;SDS011;45916;52.734;6.544;2023-08-31T02:29:52;12.23;;;9.25;;
60038;SDS011;45916;52.734;6.544;2023-08-31T02:32:18;12.77;;;9.48;;
60038;SDS011;45916;52.734;6.544;2023-08-31T02:34:44;14.85;;;10.32;;
60038;SDS011;45916;52.734;6.544;2023-08-31T02:37:10;14.77;;;9.95;;
60038;SDS011;45916;52.734;6.544;2023-08-31T02:39:35;13.00;;;10.48;;
60038;SDS011;45916;52.734;6.544;2023-08-31T02:42:01;13.35;;;11.38;;
60038;SDS011;45916;52.734;6.544;2023-08-31T02:44:27;12.80;;;11.25;;
60038;SDS011;45916;52.734;6.544;2023-08-31T02:46:53;15.43;;;11.43;;
60038;SDS011;45916;52.734;6.544;2023-08-31T02:49:18;12.50;;;11.20;;
60038;SDS011;45916;52.734;6.544;2023-08-31T02:51:44;15.27;;;13.07;;
60038;SDS011;45916;52.734;6.544;2023-08-31T02:54:10;13.90;;;12.40;;
60038;SDS011;45916;52.734;6.544;2023-08-31T02:56:35;13.80;;;12.30;;
60038;SDS011;45916;52.734;6.544;2023-08-31T02:59:01;15.55;;;13.18;;
60038;SDS011;45916;52.734;6.544;2023-08-31T03:01:27;16.42;;;12.90;;
60038;SDS011;45916;52.734;6.544;2023-08-31T03:03:53;14.75;;;13.15;;
60038;SDS011;45916;52.734;6.544;2023-08-31T03:06:18;15.57;;;13.88;;
60038;SDS011;45916;52.734;6.544;2023-08-31T03:08:44;17.38;;;13.90;;
60038;SDS011;45916;52.734;6.544;2023-08-31T03:11:10;16.33;;;14.35;;
60038;SDS011;45916;52.734;6.544;2023-08-31T03:13:36;15.93;;;14.10;;
60038;SDS011;45916;52.734;6.544;2023-08-31T03:16:02;15.52;;;13.50;;
60038;SDS011;45916;52.734;6.544;2023-08-31T03:18:28;16.42;;;14.40;;
60038;SDS011;45916;52.734;6.544;2023-08-31T03:20:54;15.30;;;13.80;;
60038;SDS011;45916;52.734;6.544;2023-08-31T03:23:20;16.00;;;14.35;;
60038;SDS011;45916;52.734;6.544;2023-08-31T03:25:46;18.55;;;14.13;;
60038;SDS011;45916;52.734;6.544;2023-08-31T03:28:12;15.48;;;13.75;;
60038;SDS011;45916;52.734;6.544;2023-08-31T03:30:38;15.40;;;13.07;;
60038;SDS011;45916;52.734;6.544;2023-08-31T03:33:04;14.50;;;13.10;;
60038;SDS011;45916;52.734;6.544;2023-08-31T03:35:31;18.48;;;14.02;;
60038;SDS011;45916;52.734;6.544;2023-08-31T03:37:57;14.48;;;12.68;;
60038;SDS011;45916;52.734;6.544;2023-08-31T03:40:23;14.57;;;13.07;;
60038;SDS011;45916;52.734;6.544;2023-08-31T03:42:49;14.88;;;12.90;;
60038;SDS011;45916;52.734;6.544;2023-08-31T03:45:15;14.77;;;12.25;;
60038;SDS011;45916;52.734;6.544;2023-08-31T03:47:41;13.73;;;12.32;;
60038;SDS011;45916;52.734;6.544;2023-08-31T03:50:07;13.88;;;12.48;;
60038;SDS011;45916;52.734;6.544;2023-08-31T03:52:33;14.73;;;13.27;;
60038;SDS011;45916;52.734;6.544;2023-08-31T03:54:59;15.27;;;13.43;;
60038;SDS011;45916;52.734;6.544;2023-08-31T03:57:25;13.48;;;12.07;;
60038;SDS011;45916;52.734;6.544;2023-08-31T03:59:51;15.85;;;11.63;;
60038;SDS011;45916;52.734;6.544;2023-08-31T04:02:17;16.67;;;12.73;;
60038;SDS011;45916;52.734;6.544;2023-08-31T04:04:43;13.73;;;11.45;;
60038;SDS011;45916;52.734;6.544;2023-08-31T04:07:08;13.60;;;11.20;;
60038;SDS011;45916;52.734;6.544;2023-08-31T04:09:34;12.45;;;10.70;;
60038;SDS011;45916;52.734;6.544;2023-08-31T04:12:01;11.73;;;10.20;;
60038;SDS011;45916;52.734;6.544;2023-08-31T04:14:27;13.15;;;10.85;;
60038;SDS011;45916;52.734;6.544;2023-08-31T04:16:56;14.45;;;10.95;;
60038;SDS011;45916;52.734;6.544;2023-08-31T04:19:22;14.48;;;10.75;;
60038;SDS011;45916;52.734;6.544;2023-08-31T04:21:48;12.73;;;9.93;;
60038;SDS011;45916;52.734;6.544;2023-08-31T04:24:14;12.82;;;9.90;;
60038;SDS011;45916;52.734;6.544;2023-08-31T04:26:39;14.55;;;10.10;;
60038;SDS011;45916;52.734;6.544;2023-08-31T04:29:05;10.65;;;8.98;;
60038;SDS011;45916;52.734;6.544;2023-08-31T04:31:31;12.90;;;9.07;;
60038;SDS011;45916;52.734;6.544;2023-08-31T04:33:57;12.95;;;9.35;;
60038;SDS011;45916;52.734;6.544;2023-08-31T04:36:23;10.45;;;8.70;;
60038;SDS011;45916;52.734;6.544;2023-08-31T04:38:50;16.00;;;8.98;;
60038;SDS011;45916;52.734;6.544;2023-08-31T04:41:17;12.38;;;9.05;;
60038;SDS011;45916;52.734;6.544;2023-08-31T04:43:44;13.05;;;9.38;;
60038;SDS011;45916;52.734;6.544;2023-08-31T04:46:09;11.13;;;8.82;;
60038;SDS011;45916;52.734;6.544;2023-08-31T04:48:35;9.88;;;8.77;;
60038;SDS011;45916;52.734;6.544;2023-08-31T04:51:01;10.75;;;7.60;;
60038;SDS011;45916;52.734;6.544;2023-08-31T04:53:29;11.17;;;8.50;;
60038;SDS011;45916;52.734;6.544;2023-08-31T04:55:55;10.80;;;9.05;;
60038;SDS011;45916;52.734;6.544;2023-08-31T04:58:21;10.57;;;8.82;;
60038;SDS011;45916;52.734;6.544;2023-08-31T05:00:47;11.52;;;8.13;;
60038;SDS011;45916;52.734;6.544;2023-08-31T05:03:13;10.15;;;8.35;;
60038;SDS011;45916;52.734;6.544;2023-08-31T05:05:39;11.02;;;8.43;;
60038;SDS011;45916;52.734;6.544;2023-08-31T05:08:07;10.27;;;8.20;;
60038;SDS011;45916;52.734;6.544;2023-08-31T05:10:33;12.18;;;8.25;;
60038;SDS011;45916;52.734;6.544;2023-08-31T05:13:00;10.93;;;8.27;;
60038;SDS011;45916;52.734;6.544;2023-08-31T05:15:26;10.25;;;9.20;;
60038;SDS011;45916;52.734;6.544;2023-08-31T05:17:52;12.35;;;8.80;;
60038;SDS011;45916;52.734;6.544;2023-08-31T05:20:19;13.32;;;8.77;;
60038;SDS011;45916;52.734;6.544;2023-08-31T05:22:46;11.27;;;9.33;;
60038;SDS011;45916;52.734;6.544;2023-08-31T05:25:12;14.98;;;9.10;;
60038;SDS011;45916;52.734;6.544;2023-08-31T05:27:38;11.02;;;7.68;;
60038;SDS011;45916;52.734;6.544;2023-08-31T05:30:03;10.15;;;7.70;;
60038;SDS011;45916;52.734;6.544;2023-08-31T05:32:30;9.68;;;6.55;;
60038;SDS011;45916;52.734;6.544;2023-08-31T05:34:55;7.35;;;5.35;;
60038;SDS011;45916;52.734;6.544;2023-08-31T05:37:21;9.45;;;5.68;;
60038;SDS011;45916;52.734;6.544;2023-08-31T05:39:48;8.43;;;5.53;;
60038;SDS011;45916;52.734;6.544;2023-08-31T05:42:14;7.47;;;4.22;;
60038;SDS011;45916;52.734;6.544;2023-08-31T05:44:40;6.82;;;4.63;;
60038;SDS011;45916;52.734;6.544;2023-08-31T05:47:06;6.85;;;4.20;;
60038;SDS011;45916;52.734;6.544;2023-08-31T05:49:32;6.68;;;4.05;;
60038;SDS011;45916;52.734;6.544;2023-08-31T05:51:58;7.88;;;3.83;;
60038;SDS011;45916;52.734;6.544;2023-08-31T05:54:24;8.50;;;3.97;;
60038;SDS011;45916;52.734;6.544;2023-08-31T05:56:49;5.70;;;3.90;;
60038;SDS011;45916;52.734;6.544;2023-08-31T05:59:15;6.18;;;3.53;;
60038;SDS011;45916;52.734;6.544;2023-08-31T06:01:41;6.00;;;2.95;;
60038;SDS011;45916;52.734;6.544;2023-08-31T06:04:08;5.65;;;2.60;;
60038;SDS011;45916;52.734;6.544;2023-08-31T06:06:34;6.53;;;2.97;;
60038;SDS011;45916;52.734;6.544;2023-08-31T06:09:00;7.28;;;2.85;;
60038;SDS011;45916;52.734;6.544;2023-08-31T06:11:25;6.28;;;2.42;;
60038;SDS011;45916;52.734;6.544;2023-08-31T06:13:52;6.20;;;3.17;;
60038;SDS011;45916;52.734;6.544;2023-08-31T06:16:18;6.13;;;2.75;;
60038;SDS011;45916;52.734;6.544;2023-08-31T06:18:44;5.97;;;2.90;;
60038;SDS011;45916;52.734;6.544;2023-08-31T06:21:09;5.63;;;2.40;;
60038;SDS011;45916;52.734;6.544;2023-08-31T06:23:35;6.10;;;2.30;;
60038;SDS011;45916;52.734;6.544;2023-08-31T06:26:01;7.40;;;2.53;;
60038;SDS011;45916;52.734;6.544;2023-08-31T06:28:28;7.50;;;2.75;;
60038;SDS011;45916;52.734;6.544;2023-08-31T06:30:53;7.17;;;2.80;;
60038;SDS011;45916;52.734;6.544;2023-08-31T06:33:19;5.40;;;2.58;;
60038;SDS011;45916;52.734;6.544;2023-08-31T06:35:46;5.78;;;2.50;;
60038;SDS011;45916;52.734;6.544;2023-08-31T06:38:13;5.28;;;2.30;;
60038;SDS011;45916;52.734;6.544;2023-08-31T06:40:41;4.75;;;1.65;;
60038;SDS011;45916;52.734;6.544;2023-08-31T06:43:08;5.57;;;2.20;;
60038;SDS011;45916;52.734;6.544;2023-08-31T06:45:34;5.57;;;2.22;;
60038;SDS011;45916;52.734;6.544;2023-08-31T06:48:00;7.35;;;2.20;;
60038;SDS011;45916;52.734;6.544;2023-08-31T06:50:26;7.35;;;2.55;;
60038;SDS011;45916;52.734;6.544;2023-08-31T06:52:52;7.70;;;2.47;;
60038;SDS011;45916;52.734;6.544;2023-08-31T06:55:17;5.35;;;2.88;;
60038;SDS011;45916;52.734;6.544;2023-08-31T06:57:43;6.88;;;3.00;;
60038;SDS011;45916;52.734;6.544;2023-08-31T07:00:09;7.28;;;2.53;;
60038;SDS011;45916;52.734;6.544;2023-08-31T07:05:04;4.85;;;2.30;;
60038;SDS011;45916;52.734;6.544;2023-08-31T07:07:31;7.03;;;2.25;;
60038;SDS011;45916;52.734;6.544;2023-08-31T07:09:57;6.28;;;2.20;;
60038;SDS011;45916;52.734;6.544;2023-08-31T07:12:23;4.80;;;2.03;;
60038;SDS011;45916;52.734;6.544;2023-08-31T07:14:48;4.95;;;1.70;;
60038;SDS011;45916;52.734;6.544;2023-08-31T07:17:17;4.93;;;1.80;;
60038;SDS011;45916;52.734;6.544;2023-08-31T07:19:44;5.25;;;1.58;;
60038;SDS011;45916;52.734;6.544;2023-08-31T07:22:10;4.88;;;1.50;;
60038;SDS011;45916;52.734;6.544;2023-08-31T07:24:37;6.27;;;1.60;;
60038;SDS011;45916;52.734;6.544;2023-08-31T07:27:03;6.00;;;1.85;;
60038;SDS011;45916;52.734;6.544;2023-08-31T07:29:29;5.68;;;1.75;;
60038;SDS011;45916;52.734;6.544;2023-08-31T07:31:55;6.65;;;1.58;;
60038;SDS011;45916;52.734;6.544;2023-08-31T07:34:20;5.57;;;1.48;;
60038;SDS011;45916;52.734;6.544;2023-08-31T07:36:46;6.32;;;1.80;;
60038;SDS011;45916;52.734;6.544;2023-08-31T07:39:12;4.68;;;1.52;;
60038;SDS011;45916;52.734;6.544;2023-08-31T07:41:38;4.20;;;1.48;;
60038;SDS011;45916;52.734;6.544;2023-08-31T07:44:05;5.70;;;1.77;;
60038;SDS011;45916;52.734;6.544;2023-08-31T07:46:31;5.38;;;1.45;;
60038;SDS011;45916;52.734;6.544;2023-08-31T07:48:56;4.82;;;1.30;;
60038;SDS011;45916;52.734;6.544;2023-08-31T07:51:22;4.50;;;1.35;;
60038;SDS011;45916;52.734;6.544;2023-08-31T07:53:49;5.03;;;1.20;;
60038;SDS011;45916;52.734;6.544;2023-08-31T07:56:15;5.55;;;1.13;;
60038;SDS011;45916;52.734;6.544;2023-08-31T07:58:40;4.03;;;0.82;;
60038;SDS011;45916;52.734;6.544;2023-08-31T08:01:06;4.07;;;1.00;;
60038;SDS011;45916;52.734;6.544;2023-08-31T08:03:32;3.75;;;1.13;;
60038;SDS011;45916;52.734;6.544;2023-08-31T08:05:58;4.38;;;1.13;;
60038;SDS011;45916;52.734;6.544;2023-08-31T08:08:23;3.83;;;0.90;;
60038;SDS011;45916;52.734;6.544;2023-08-31T08:10:53;3.90;;;0.90;;
60038;SDS011;45916;52.734;6.544;2023-08-31T08:13:19;4.05;;;1.23;;
60038;SDS011;45916;52.734;6.544;2023-08-31T08:15:45;3.28;;;0.60;;
60038;SDS011;45916;52.734;6.544;2023-08-31T08:18:11;4.63;;;0.85;;
60038;SDS011;45916;52.734;6.544;2023-08-31T08:20:36;2.80;;;0.90;;
60038;SDS011;45916;52.734;6.544;2023-08-31T08:23:02;3.58;;;0.80;;
60038;SDS011;45916;52.734;6.544;2023-08-31T08:25:28;3.67;;;0.70;;
60038;SDS011;45916;52.734;6.544;2023-08-31T08:27:54;3.78;;;0.63;;
60038;SDS011;45916;52.734;6.544;2023-08-31T08:30:20;4.00;;;0.75;;
60038;SDS011;45916;52.734;6.544;2023-08-31T08:32:45;2.80;;;0.65;;
60038;SDS011;45916;52.734;6.544;2023-08-31T08:35:11;1.83;;;0.40;;
60038;SDS011;45916;52.734;6.544;2023-08-31T08:37:37;2.22;;;0.50;;
60038;SDS011;45916;52.734;6.544;2023-08-31T08:40:03;2.92;;;0.50;;
60038;SDS011;45916;52.734;6.544;2023-08-31T08:42:29;3.55;;;0.70;;
60038;SDS011;45916;52.734;6.544;2023-08-31T08:44:58;2.92;;;0.52;;
60038;SDS011;45916;52.734;6.544;2023-08-31T08:47:26;3.17;;;0.45;;
60038;SDS011;45916;52.734;6.544;2023-08-31T08:49:53;4.23;;;0.47;;
60038;SDS011;45916;52.734;6.544;2023-08-31T08:54:46;2.83;;;0.40;;
60038;SDS011;45916;52.734;6.544;2023-08-31T08:57:14;3.60;;;0.60;;
60038;SDS011;45916;52.734;6.544;2023-08-31T08:59:39;3.97;;;0.85;;
60038;SDS011;45916;52.734;6.544;2023-08-31T09:02:05;2.78;;;0.50;;
60038;SDS011;45916;52.734;6.544;2023-08-31T09:04:36;3.92;;;0.60;;
60038;SDS011;45916;52.734;6.544;2023-08-31T09:07:01;2.53;;;0.70;;
60038;SDS011;45916;52.734;6.544;2023-08-31T09:09:27;3.10;;;0.50;;
60038;SDS011;45916;52.734;6.544;2023-08-31T09:11:53;2.13;;;0.60;;
60038;SDS011;45916;52.734;6.544;2023-08-31T09:14:21;2.85;;;0.47;;
60038;SDS011;45916;52.734;6.544;2023-08-31T09:16:51;3.75;;;0.60;;
60038;SDS011;45916;52.734;6.544;2023-08-31T09:19:25;2.33;;;0.50;;
60038;SDS011;45916;52.734;6.544;2023-08-31T09:21:55;3.25;;;0.63;;
60038;SDS011;45916;52.734;6.544;2023-08-31T09:24:22;4.85;;;0.82;;
60038;SDS011;45916;52.734;6.544;2023-08-31T09:26:52;4.63;;;0.75;;
60038;SDS011;45916;52.734;6.544;2023-08-31T09:29:19;2.45;;;0.50;;
60038;SDS011;45916;52.734;6.544;2023-08-31T09:31:45;3.38;;;0.68;;
60038;SDS011;45916;52.734;6.544;2023-08-31T09:34:11;3.67;;;0.57;;
60038;SDS011;45916;52.734;6.544;2023-08-31T09:36:38;2.90;;;0.50;;
60038;SDS011;45916;52.734;6.544;2023-08-31T09:39:05;3.67;;;0.75;;
60038;SDS011;45916;52.734;6.544;2023-08-31T09:44:14;3.10;;;0.75;;
60038;SDS011;45916;52.734;6.544;2023-08-31T09:46:41;4.35;;;0.95;;
60038;SDS011;45916;52.734;6.544;2023-08-31T09:49:08;3.65;;;0.55;;
60038;SDS011;45916;52.734;6.544;2023-08-31T09:51:35;3.53;;;0.60;;
60038;SDS011;45916;52.734;6.544;2023-08-31T09:54:06;3.33;;;0.60;;
60038;SDS011;45916;52.734;6.544;2023-08-31T09:56:34;4.30;;;0.75;;
60038;SDS011;45916;52.734;6.544;2023-08-31T09:59:02;4.88;;;0.77;;
60038;SDS011;45916;52.734;6.544;2023-08-31T10:01:28;2.70;;;0.50;;
60038;SDS011;45916;52.734;6.544;2023-08-31T10:03:54;3.65;;;0.60;;
60038;SDS011;45916;52.734;6.544;2023-08-31T10:06:21;2.30;;;0.57;;
60038;SDS011;45916;52.734;6.544;2023-08-31T10:08:47;3.35;;;0.60;;
60038;SDS011;45916;52.734;6.544;2023-08-31T10:11:13;3.47;;;0.40;;
60038;SDS011;45916;52.734;6.544;2023-08-31T10:13:41;3.05;;;0.50;;
60038;SDS011;45916;52.734;6.544;2023-08-31T10:16:07;3.07;;;0.77;;
60038;SDS011;45916;52.734;6.544;2023-08-31T10:18:34;4.72;;;0.85;;
60038;SDS011;45916;52.734;6.544;2023-08-31T10:21:01;4.15;;;1.00;;
60038;SDS011;45916;52.734;6.544;2023-08-31T10:23:28;2.90;;;0.68;;
60038;SDS011;45916;52.734;6.544;2023-08-31T10:31:05;3.47;;;0.85;;
60038;SDS011;45916;52.734;6.544;2023-08-31T10:33:34;4.55;;;0.75;;
60038;SDS011;45916;52.734;6.544;2023-08-31T10:36:18;3.72;;;0.80;;
60038;SDS011;45916;52.734;6.544;2023-08-31T10:38:45;2.15;;;0.50;;
60038;SDS011;45916;52.734;6.544;2023-08-31T10:41:21;4.10;;;0.70;;
60038;SDS011;45916;52.734;6.544;2023-08-31T10:43:48;6.63;;;1.03;;
60038;SDS011;45916;52.734;6.544;2023-08-31T10:46:31;5.90;;;0.90;;
60038;SDS011;45916;52.734;6.544;2023-08-31T10:56:40;4.95;;;1.00;;
60038;SDS011;45916;52.734;6.544;2023-08-31T10:59:16;5.32;;;1.20;;
60038;SDS011;45916;52.734;6.544;2023-08-31T11:01:58;5.18;;;1.00;;
60038;SDS011;45916;52.734;6.544;2023-08-31T11:04:27;4.63;;;1.00;;
60038;SDS011;45916;52.734;6.544;2023-08-31T11:09:38;4.28;;;1.60;;
60038;SDS011;45916;52.734;6.544;2023-08-31T11:12:05;4.68;;;1.45;;
60038;SDS011;45916;52.734;6.544;2023-08-31T11:14:30;4.03;;;0.98;;
60038;SDS011;45916;52.734;6.544;2023-08-31T11:16:56;5.07;;;1.23;;
60038;SDS011;45916;52.734;6.544;2023-08-31T11:19:22;5.50;;;1.17;;
60038;SDS011;45916;52.734;6.544;2023-08-31T11:21:48;4.00;;;1.30;;
60038;SDS011;45916;52.734;6.544;2023-08-31T11:24:14;6.25;;;1.38;;
60038;SDS011;45916;52.734;6.544;2023-08-31T11:26:42;5.45;;;1.80;;
60038;SDS011;45916;52.734;6.544;2023-08-31T11:29:08;3.33;;;0.98;;
60038;SDS011;45916;52.734;6.544;2023-08-31T11:31:38;3.63;;;0.90;;
60038;SDS011;45916;52.734;6.544;2023-08-31T11:34:07;7.57;;;1.65;;
60038;SDS011;45916;52.734;6.544;2023-08-31T11:36:37;4.78;;;1.50;;
60038;SDS011;45916;52.734;6.544;2023-08-31T11:39:03;6.00;;;1.20;;
60038;SDS011;45916;52.734;6.544;2023-08-31T11:41:32;5.07;;;0.90;;
60038;SDS011;45916;52.734;6.544;2023-08-31T11:44:00;5.15;;;1.13;;
60038;SDS011;45916;52.734;6.544;2023-08-31T11:46:26;2.67;;;0.73;;
60038;SDS011;45916;52.734;6.544;2023-08-31T11:48:52;3.15;;;0.77;;
60038;SDS011;45916;52.734;6.544;2023-08-31T11:51:19;2.45;;;0.50;;
60038;SDS011;45916;52.734;6.544;2023-08-31T11:53:45;2.50;;;0.60;;
60038;SDS011;45916;52.734;6.544;2023-08-31T11:56:11;4.70;;;0.75;;
60038;SDS011;45916;52.734;6.544;2023-08-31T11:58:40;3.40;;;0.75;;
60038;SDS011;45916;52.734;6.544;2023-08-31T12:01:07;2.22;;;0.90;;
60038;SDS011;45916;52.734;6.544;2023-08-31T12:03:43;2.72;;;0.90;;
60038;SDS011;45916;52.734;6.544;2023-08-31T12:06:10;4.65;;;0.90;;
60038;SDS011;45916;52.734;6.544;2023-08-31T12:08:36;2.45;;;0.57;;
60038;SDS011;45916;52.734;6.544;2023-08-31T12:11:03;3.77;;;1.03;;
60038;SDS011;45916;52.734;6.544;2023-08-31T12:13:31;4.55;;;1.00;;
60038;SDS011;45916;52.734;6.544;2023-08-31T12:15:57;4.68;;;1.02;;
60038;SDS011;45916;52.734;6.544;2023-08-31T12:18:23;2.42;;;0.70;;
60038;SDS011;45916;52.734;6.544;2023-08-31T12:20:49;2.50;;;0.65;;
60038;SDS011;45916;52.734;6.544;2023-08-31T12:23:17;5.70;;;0.80;;
60038;SDS011;45916;52.734;6.544;2023-08-31T12:25:45;2.90;;;0.73;;
60038;SDS011;45916;52.734;6.544;2023-08-31T12:28:16;3.42;;;0.70;;
60038;SDS011;45916;52.734;6.544;2023-08-31T12:30:50;4.03;;;0.57;;
60038;SDS011;45916;52.734;6.544;2023-08-31T12:33:17;3.70;;;0.90;;
60038;SDS011;45916;52.734;6.544;2023-08-31T12:35:43;2.13;;;0.70;;
60038;SDS011;45916;52.734;6.544;2023-08-31T12:38:09;4.15;;;0.98;;
60038;SDS011;45916;52.734;6.544;2023-08-31T12:40:36;2.97;;;0.73;;
60038;SDS011;45916;52.734;6.544;2023-08-31T12:43:04;4.32;;;0.75;;
60038;SDS011;45916;52.734;6.544;2023-08-31T12:45:30;2.88;;;0.90;;
60038;SDS011;45916;52.734;6.544;2023-08-31T12:47:56;4.72;;;0.80;;
60038;SDS011;45916;52.734;6.544;2023-08-31T12:50:22;6.25;;;1.30;;
60038;SDS011;45916;52.734;6.544;2023-08-31T12:52:48;4.05;;;1.13;;
60038;SDS011;45916;52.734;6.544;2023-08-31T12:55:14;3.53;;;1.00;;
60038;SDS011;45916;52.734;6.544;2023-08-31T12:57:40;4.32;;;0.95;;
60038;SDS011;45916;52.734;6.544;2023-08-31T13:00:07;5.05;;;1.35;;
60038;SDS011;45916;52.734;6.544;2023-08-31T13:02:40;4.43;;;1.00;;
60038;SDS011;45916;52.734;6.544;2023-08-31T13:05:07;3.25;;;0.85;;
60038;SDS011;45916;52.734;6.544;2023-08-31T13:07:34;4.03;;;0.90;;
60038;SDS011;45916;52.734;6.544;2023-08-31T13:10:02;6.03;;;1.10;;
60038;SDS011;45916;52.734;6.544;2023-08-31T13:12:30;6.22;;;1.10;;
60038;SDS011;45916;52.734;6.544;2023-08-31T13:14:56;5.40;;;0.93;;
60038;SDS011;45916;52.734;6.544;2023-08-31T13:17:22;5.65;;;0.90;;
60038;SDS011;45916;52.734;6.544;2023-08-31T13:19:52;4.88;;;1.38;;
60038;SDS011;45916;52.734;6.544;2023-08-31T13:22:21;3.85;;;1.27;;
60038;SDS011;45916;52.734;6.544;2023-08-31T13:24:47;4.00;;;0.90;;
60038;SDS011;45916;52.734;6.544;2023-08-31T13:27:12;4.20;;;1.20;;
60038;SDS011;45916;52.734;6.544;2023-08-31T13:29:39;4.20;;;1.15;;
60038;SDS011;45916;52.734;6.544;2023-08-31T13:32:05;5.47;;;1.33;;
60038;SDS011;45916;52.734;6.544;2023-08-31T13:34:32;6.90;;;1.27;;
60038;SDS011;45916;52.734;6.544;2023-08-31T13:36:58;6.20;;;1.83;;
60038;SDS011;45916;52.734;6.544;2023-08-31T13:39:24;6.10;;;1.38;;
60038;SDS011;45916;52.734;6.544;2023-08-31T13:41:51;5.13;;;1.20;;
60038;SDS011;45916;52.734;6.544;2023-08-31T13:44:17;4.00;;;1.10;;
60038;SDS011;45916;52.734;6.544;2023-08-31T13:46:43;5.78;;;1.77;;
60038;SDS011;45916;52.734;6.544;2023-08-31T13:49:09;5.90;;;1.20;;
60038;SDS011;45916;52.734;6.544;2023-08-31T13:51:34;4.82;;;1.58;;
60038;SDS011;45916;52.734;6.544;2023-08-31T13:54:01;4.57;;;1.45;;
60038;SDS011;45916;52.734;6.544;2023-08-31T13:56:28;3.65;;;1.40;;
60038;SDS011;45916;52.734;6.544;2023-08-31T13:58:54;5.28;;;1.90;;
60038;SDS011;45916;52.734;6.544;2023-08-31T14:01:20;6.65;;;1.83;;
60038;SDS011;45916;52.734;6.544;2023-08-31T14:03:46;5.80;;;1.63;;
60038;SDS011;45916;52.734;6.544;2023-08-31T14:06:11;5.78;;;1.50;;
60038;SDS011;45916;52.734;6.544;2023-08-31T14:08:39;5.90;;;1.75;;
60038;SDS011;45916;52.734;6.544;2023-08-31T14:11:05;6.05;;;1.70;;
60038;SDS011;45916;52.734;6.544;2023-08-31T14:13:31;7.10;;;1.98;;
60038;SDS011;45916;52.734;6.544;2023-08-31T14:15:57;4.55;;;1.48;;
60038;SDS011;45916;52.734;6.544;2023-08-31T14:18:23;6.25;;;1.30;;
60038;SDS011;45916;52.734;6.544;2023-08-31T14:20:50;4.78;;;1.50;;
60038;SDS011;45916;52.734;6.544;2023-08-31T14:23:16;6.13;;;1.30;;
60038;SDS011;45916;52.734;6.544;2023-08-31T14:25:42;4.63;;;1.17;;
60038;SDS011;45916;52.734;6.544;2023-08-31T14:28:08;6.18;;;1.13;;
60038;SDS011;45916;52.734;6.544;2023-08-31T14:30:35;5.63;;;1.25;;
60038;SDS011;45916;52.734;6.544;2023-08-31T14:33:01;5.28;;;1.67;;
60038;SDS011;45916;52.734;6.544;2023-08-31T14:35:28;5.15;;;1.23;;
60038;SDS011;45916;52.734;6.544;2023-08-31T14:37:54;7.43;;;1.52;;
60038;SDS011;45916;52.734;6.544;2023-08-31T14:40:21;6.82;;;1.58;;
60038;SDS011;45916;52.734;6.544;2023-08-31T14:42:47;5.47;;;1.88;;
60038;SDS011;45916;52.734;6.544;2023-08-31T14:45:13;6.00;;;1.50;;
60038;SDS011;45916;52.734;6.544;2023-08-31T14:47:39;6.68;;;1.50;;
60038;SDS011;45916;52.734;6.544;2023-08-31T14:50:05;5.70;;;1.30;;
60038;SDS011;45916;52.734;6.544;2023-08-31T14:52:32;6.40;;;1.40;;
60038;SDS011;45916;52.734;6.544;2023-08-31T14:54:57;5.32;;;1.63;;
60038;SDS011;45916;52.734;6.544;2023-08-31T14:57:24;5.40;;;1.58;;
60038;SDS011;45916;52.734;6.544;2023-08-31T14:59:50;5.13;;;1.73;;
60038;SDS011;45916;52.734;6.544;2023-08-31T15:02:19;5.20;;;1.35;;
60038;SDS011;45916;52.734;6.544;2023-08-31T15:07:18;5.03;;;1.42;;
60038;SDS011;45916;52.734;6.544;2023-08-31T15:09:44;5.72;;;1.58;;
60038;SDS011;45916;52.734;6.544;2023-08-31T15:12:11;5.78;;;1.73;;
60038;SDS011;45916;52.734;6.544;2023-08-31T15:14:37;4.95;;;1.30;;
60038;SDS011;45916;52.734;6.544;2023-08-31T15:17:06;5.90;;;1.92;;
60038;SDS011;45916;52.734;6.544;2023-08-31T15:19:31;5.38;;;1.55;;
60038;SDS011;45916;52.734;6.544;2023-08-31T15:21:58;5.22;;;1.40;;
60038;SDS011;45916;52.734;6.544;2023-08-31T15:24:23;6.38;;;1.80;;
60038;SDS011;45916;52.734;6.544;2023-08-31T15:26:49;6.72;;;1.85;;
60038;SDS011;45916;52.734;6.544;2023-08-31T15:29:15;5.80;;;1.52;;
60038;SDS011;45916;52.734;6.544;2023-08-31T15:31:41;6.22;;;1.60;;
60038;SDS011;45916;52.734;6.544;2023-08-31T15:34:10;7.13;;;1.38;;
60038;SDS011;45916;52.734;6.544;2023-08-31T15:36:36;6.20;;;2.05;;
60038;SDS011;45916;52.734;6.544;2023-08-31T15:39:02;7.78;;;2.25;;
60038;SDS011;45916;52.734;6.544;2023-08-31T15:41:28;8.13;;;1.45;;
60038;SDS011;45916;52.734;6.544;2023-08-31T15:43:59;5.60;;;1.30;;
60038;SDS011;45916;52.734;6.544;2023-08-31T15:46:25;7.35;;;1.65;;
60038;SDS011;45916;52.734;6.544;2023-08-31T15:48:53;7.82;;;1.42;;
60038;SDS011;45916;52.734;6.544;2023-08-31T15:51:18;3.95;;;1.42;;
60038;SDS011;45916;52.734;6.544;2023-08-31T15:53:44;5.22;;;1.30;;
60038;SDS011;45916;52.734;6.544;2023-08-31T15:56:10;6.95;;;1.30;;
60038;SDS011;45916;52.734;6.544;2023-08-31T15:58:35;4.63;;;1.25;;
60038;SDS011;45916;52.734;6.544;2023-08-31T16:01:01;5.95;;;2.13;;
60038;SDS011;45916;52.734;6.544;2023-08-31T16:03:31;5.03;;;1.27;;
60038;SDS011;45916;52.734;6.544;2023-08-31T16:05:59;4.80;;;1.30;;
60038;SDS011;45916;52.734;6.544;2023-08-31T16:08:26;5.70;;;1.27;;